Time;durP1;ratioP1;P1;durP2;ratioP2;P2;SDS_P1;SDS_P2;PMS_P1;PMS_P2;Temp;Humidity;BMP_temperature;BMP_pressure;BME280_temperature;BME280_humidity;BME280_pressure;Samples;Min_cycle;Max_cycle;Signal;HPM_P1;HPM_P2
2024/01/03 00:00:35;;;;;;;0.20;0.20;;;8.70;99.90;;;;;;4991828;28;20431;-71
2024/01/03 00:03:02;;;;;;;0.43;0.43;;;8.70;99.90;;;;;;4967606;28;20050;-71
2024/01/03 00:05:39;;;;;;;0.43;0.43;;;8.70;99.90;;;;;;4958550;28;20078;-71
2024/01/03 00:08:34;;;;;;;0.00;0.00;;;8.60;99.90;;;;;;4961661;28;20088;-71
2024/01/03 00:11:01;;;;;;;0.88;0.88;;;8.60;99.90;;;;;;4970631;28;20190;-71
2024/01/03 00:13:33;;;;;;;0.10;0.10;;;8.70;99.90;;;;;;4965141;28;20662;-71
2024/01/03 00:16:17;;;;;;;4.18;1.00;;;8.60;99.90;;;;;;4965989;28;20541;-71
2024/01/03 00:18:58;;;;;;;0.10;0.10;;;8.60;99.90;;;;;;4965169;28;20050;-71
2024/01/03 00:21:29;;;;;;;11.07;1.63;;;8.60;99.90;;;;;;4968799;28;20060;-71
2024/01/03 00:23:56;;;;;;;0.40;0.40;;;8.60;99.90;;;;;;4994471;28;20047;-70
2024/01/03 00:26:29;;;;;;;0.70;0.70;;;8.60;99.90;;;;;;4963732;28;20050;-70
2024/01/03 00:28:56;;;;;;;3.53;2.00;;;8.60;99.90;;;;;;4965862;28;20074;-70
2024/01/03 00:31:37;;;;;;;3.17;1.35;;;8.60;99.90;;;;;;5002485;28;20165;-70
2024/01/03 00:34:22;;;;;;;0.15;0.15;;;8.60;99.90;;;;;;4960100;28;20086;-70
2024/01/03 00:36:56;;;;;;;1.15;1.05;;;8.60;99.90;;;;;;4967186;28;20043;-70
2024/01/03 00:39:32;;;;;;;0.10;0.10;;;8.60;99.90;;;;;;4967856;28;20046;-69
2024/01/03 00:41:57;;;;;;;0.10;0.10;;;8.70;99.90;;;;;;4992018;28;20142;-70
2024/01/03 00:44:23;;;;;;;1.35;1.00;;;8.70;99.90;;;;;;4965299;28;20045;-70
2024/01/03 00:46:49;;;;;;;0.70;0.65;;;8.60;99.90;;;;;;4970478;28;20047;-70
2024/01/03 00:49:16;;;;;;;0.32;0.32;;;8.70;99.90;;;;;;4961511;28;20047;-70
2024/01/03 00:51:47;;;;;;;3.10;1.35;;;8.70;99.90;;;;;;4966795;28;20795;-70
2024/01/03 00:54:13;;;;;;;0.08;0.08;;;8.60;99.90;;;;;;4964426;28;20449;-70
2024/01/03 00:56:38;;;;;;;0.10;0.10;;;8.70;99.90;;;;;;4969583;28;20117;-70
2024/01/03 00:59:04;;;;;;;1.70;0.90;;;8.70;99.90;;;;;;4954431;28;20043;-70
2024/01/03 01:01:30;;;;;;;0.10;0.10;;;8.70;99.90;;;;;;4963492;28;20039;-70
2024/01/03 01:03:55;;;;;;;0.63;0.63;;;8.70;99.90;;;;;;4996548;28;20050;-70
2024/01/03 01:06:21;;;;;;;0.17;0.17;;;8.70;99.90;;;;;;4965877;28;20506;-70
2024/01/03 01:08:46;;;;;;;0.10;0.10;;;8.60;99.90;;;;;;4970260;28;20043;-70
2024/01/03 01:11:12;;;;;;;4.18;1.85;;;8.60;99.90;;;;;;4961549;28;20054;-70
2024/01/03 01:13:38;;;;;;;0.10;0.10;;;8.60;99.90;;;;;;4996930;28;20058;-70
2024/01/03 01:16:03;;;;;;;1.35;0.90;;;8.60;99.90;;;;;;4969380;28;20475;-70
2024/01/03 01:18:29;;;;;;;0.10;0.10;;;8.70;99.90;;;;;;4964341;28;20166;-70
2024/01/03 01:20:54;;;;;;;0.10;0.10;;;8.70;99.90;;;;;;4960242;28;20082;-71
2024/01/03 01:23:20;;;;;;;0.10;0.10;;;8.70;99.90;;;;;;4968538;28;20051;-71
2024/01/03 01:25:46;;;;;;;0.10;0.10;;;8.70;99.90;;;;;;4964959;28;20058;-71
2024/01/03 01:28:11;;;;;;;0.30;0.30;;;8.70;99.90;;;;;;4996390;28;20130;-71
2024/01/03 01:30:37;;;;;;;0.95;0.95;;;8.70;99.90;;;;;;4964251;28;20047;-71
2024/01/03 01:33:02;;;;;;;0.00;0.00;;;8.70;99.90;;;;;;4960027;28;20130;-71
2024/01/03 01:35:28;;;;;;;9.05;1.90;;;8.70;99.90;;;;;;4962112;28;20091;-71
2024/01/03 01:37:54;;;;;;;0.08;0.08;;;8.70;99.90;;;;;;4973622;28;20467;-71
2024/01/03 01:40:19;;;;;;;7.22;1.85;;;8.70;99.90;;;;;;4960499;28;20039;-71
2024/01/03 01:42:45;;;;;;;0.10;0.10;;;8.70;99.90;;;;;;4967019;28;20572;-71
2024/01/03 01:45:10;;;;;;;1.25;1.25;;;8.70;99.90;;;;;;5002496;28;20046;-71
2024/01/03 01:47:38;;;;;;;0.10;0.10;;;8.80;99.90;;;;;;4957255;28;20048;-70
2024/01/03 01:50:05;;;;;;;15.80;1.65;;;8.70;99.90;;;;;;5001635;28;20105;-71
2024/01/03 01:52:30;;;;;;;0.68;0.68;;;8.70;99.90;;;;;;4963710;28;20042;-70
2024/01/03 01:54:56;;;;;;;0.10;0.10;;;8.70;99.90;;;;;;4996864;28;20057;-70
2024/01/03 01:57:22;;;;;;;3.40;1.85;;;8.70;99.90;;;;;;4964010;28;20100;-71
2024/01/03 01:59:48;;;;;;;22.80;2.05;;;8.70;99.90;;;;;;4966171;28;20492;-70
2024/01/03 02:02:14;;;;;;;5.82;1.77;;;8.70;99.90;;;;;;4994225;28;20058;-70
2024/01/03 02:04:40;;;;;;;0.10;0.10;;;8.70;99.90;;;;;;4962174;28;20051;-70
2024/01/03 02:07:08;;;;;;;0.10;0.10;;;8.80;99.90;;;;;;4970304;28;20105;-70
2024/01/03 02:09:33;;;;;;;0.30;0.30;;;8.70;99.90;;;;;;4997089;28;20035;-70
2024/01/03 02:11:59;;;;;;;0.75;0.75;;;8.80;99.90;;;;;;4968636;28;20062;-70
2024/01/03 02:14:24;;;;;;;0.00;0.00;;;8.70;99.90;;;;;;4967418;28;20066;-70
2024/01/03 02:16:50;;;;;;;0.00;0.00;;;8.80;99.90;;;;;;4996112;28;20501;-70
2024/01/03 02:19:16;;;;;;;0.52;0.52;;;8.80;99.90;;;;;;4961389;28;20402;-70
2024/01/03 02:21:41;;;;;;;0.00;0.00;;;8.80;99.90;;;;;;4963423;28;20051;-70
2024/01/03 02:24:07;;;;;;;10.00;4.13;;;8.80;99.90;;;;;;4968116;28;20053;-70
2024/01/03 02:26:32;;;;;;;2.13;1.30;;;8.80;99.90;;;;;;4994955;28;20479;-70
2024/01/03 02:28:58;;;;;;;0.75;0.75;;;8.80;99.90;;;;;;4968003;28;20458;-69
2024/01/03 02:31:23;;;;;;;0.10;0.10;;;8.80;99.90;;;;;;4968062;28;20439;-69
2024/01/03 02:33:49;;;;;;;0.10;0.10;;;8.80;99.90;;;;;;4966131;28;20165;-69
2024/01/03 02:36:15;;;;;;;0.30;0.30;;;8.80;99.90;;;;;;4958324;28;20076;-69
2024/01/03 02:38:48;;;;;;;0.10;0.10;;;8.80;99.90;;;;;;5002320;28;20055;-69
2024/01/03 02:41:13;;;;;;;0.10;0.10;;;8.80;99.90;;;;;;4962579;28;20047;-69
2024/01/03 02:43:39;;;;;;;0.10;0.10;;;8.90;99.90;;;;;;4967479;28;20114;-69
2024/01/03 02:46:04;;;;;;;1.48;1.38;;;8.80;99.90;;;;;;4984624;28;20598;-69
2024/01/03 02:48:30;;;;;;;0.17;0.17;;;8.80;99.90;;;;;;4963713;28;20080;-69
2024/01/03 02:50:55;;;;;;;0.85;0.82;;;8.80;99.90;;;;;;4966464;28;20078;-69
2024/01/03 02:53:21;;;;;;;0.75;0.75;;;8.80;99.90;;;;;;4959221;28;20490;-69
2024/01/03 02:55:46;;;;;;;0.03;0.03;;;8.80;99.90;;;;;;4966701;28;20047;-69
2024/01/03 02:58:12;;;;;;;0.00;0.00;;;8.80;99.90;;;;;;4976683;28;20053;-69
2024/01/03 03:00:39;;;;;;;0.00;0.00;;;8.80;99.90;;;;;;4964333;28;20047;-69
2024/01/03 03:03:04;;;;;;;3.10;2.00;;;8.80;99.90;;;;;;4964874;28;20039;-69
2024/01/03 03:05:30;;;;;;;0.10;0.10;;;8.80;99.90;;;;;;4967693;28;20138;-69
2024/01/03 03:07:56;;;;;;;0.20;0.20;;;8.80;99.90;;;;;;4960059;28;20087;-69
2024/01/03 03:10:21;;;;;;;0.00;0.00;;;8.80;99.90;;;;;;4966161;28;20105;-69
2024/01/03 03:12:47;;;;;;;0.10;0.10;;;8.80;99.90;;;;;;4968901;28;20039;-69
2024/01/03 03:15:12;;;;;;;6.63;2.00;;;8.80;99.90;;;;;;4966401;28;20396;-69
2024/01/03 03:17:38;;;;;;;0.10;0.10;;;8.90;99.90;;;;;;4963282;28;20047;-69
2024/01/03 03:20:04;;;;;;;0.52;0.52;;;8.80;99.90;;;;;;4965446;28;20047;-71
2024/01/03 03:22:29;;;;;;;0.10;0.10;;;8.80;99.90;;;;;;4963143;28;20743;-69
2024/01/03 03:24:55;;;;;;;1.05;0.98;;;8.80;99.90;;;;;;4995332;28;20058;-69
2024/01/03 03:27:21;;;;;;;0.60;0.57;;;8.90;99.90;;;;;;4968562;28;20050;-69
2024/01/03 03:29:46;;;;;;;0.20;0.20;;;8.90;99.90;;;;;;4969278;28;20042;-69
2024/01/03 03:32:12;;;;;;;0.00;0.00;;;8.90;99.90;;;;;;4964948;28;20054;-69
2024/01/03 03:34:37;;;;;;;2.63;0.80;;;8.80;99.90;;;;;;4969707;28;20050;-69
2024/01/03 03:37:04;;;;;;;0.47;0.47;;;8.80;99.90;;;;;;4968995;28;20039;-69
2024/01/03 03:39:29;;;;;;;1.13;0.77;;;8.80;99.90;;;;;;4963415;28;20928;-69
2024/01/03 03:41:55;;;;;;;0.10;0.10;;;8.80;99.90;;;;;;4959730;28;20082;-69
2024/01/03 03:44:21;;;;;;;0.10;0.10;;;8.80;99.90;;;;;;4985147;28;20047;-69
2024/01/03 03:46:46;;;;;;;0.30;0.30;;;8.80;99.90;;;;;;4966701;28;20039;-69
2024/01/03 03:49:12;;;;;;;0.10;0.10;;;8.70;99.90;;;;;;4962387;28;20058;-69
2024/01/03 03:51:37;;;;;;;0.30;0.30;;;8.70;99.90;;;;;;4959849;28;20488;-69
2024/01/03 03:54:03;;;;;;;0.32;0.32;;;8.70;99.90;;;;;;4957017;28;20459;-69
2024/01/03 03:56:31;;;;;;;0.13;0.13;;;8.80;99.90;;;;;;4969409;28;20050;-69
2024/01/03 03:58:57;;;;;;;0.10;0.10;;;8.80;99.90;;;;;;4960502;28;20047;-69
2024/01/03 04:01:22;;;;;;;0.10;0.10;;;8.80;99.90;;;;;;4961089;28;20050;-69
2024/01/03 04:03:48;;;;;;;0.28;0.28;;;8.90;99.90;;;;;;4992888;28;20053;-69
2024/01/03 04:06:15;;;;;;;0.20;0.20;;;8.80;99.90;;;;;;4963306;28;20039;-69
2024/01/03 04:08:44;;;;;;;0.00;0.00;;;8.90;99.90;;;;;;4962875;28;20049;-68
2024/01/03 04:11:10;;;;;;;0.20;0.20;;;8.90;99.90;;;;;;4999601;28;20047;-69
2024/01/03 04:13:38;;;;;;;0.70;0.70;;;8.90;99.90;;;;;;4964206;28;20067;-69
2024/01/03 04:16:10;;;;;;;0.82;0.82;;;8.90;99.90;;;;;;4992066;28;20046;-69
2024/01/03 04:18:36;;;;;;;0.10;0.10;;;8.90;99.90;;;;;;4956792;28;20130;-68
2024/01/03 04:21:05;;;;;;;0.10;0.10;;;8.90;99.90;;;;;;4964414;28;20057;-69
2024/01/03 04:23:31;;;;;;;1.40;1.30;;;8.90;99.90;;;;;;4967250;28;20047;-69
2024/01/03 04:25:56;;;;;;;0.10;0.10;;;8.90;99.90;;;;;;4968127;28;20117;-68
2024/01/03 04:28:22;;;;;;;0.20;0.20;;;8.80;99.90;;;;;;4960851;28;20479;-69
2024/01/03 04:30:48;;;;;;;0.00;0.00;;;8.80;99.90;;;;;;4962223;28;20126;-69
2024/01/03 04:33:13;;;;;;;0.15;0.15;;;8.80;99.90;;;;;;4959916;28;20039;-69
2024/01/03 04:35:39;;;;;;;0.25;0.25;;;8.80;99.90;;;;;;4965131;28;20098;-69
2024/01/03 04:38:04;;;;;;;0.10;0.10;;;8.80;99.90;;;;;;4969412;28;20043;-68
2024/01/03 04:40:31;;;;;;;3.10;1.27;;;8.90;99.90;;;;;;4969149;28;20054;-69
2024/01/03 04:42:57;;;;;;;0.98;0.98;;;8.90;99.90;;;;;;4958731;28;20491;-68
2024/01/03 04:45:22;;;;;;;4.45;2.17;;;8.90;99.90;;;;;;4956873;28;20070;-69
2024/01/03 04:47:49;;;;;;;0.10;0.10;;;8.90;99.90;;;;;;4967861;28;20130;-69
2024/01/03 04:50:15;;;;;;;0.10;0.10;;;8.90;99.90;;;;;;4968661;28;20125;-68
2024/01/03 04:52:40;;;;;;;0.40;0.40;;;8.90;99.90;;;;;;4958613;28;20054;-69
2024/01/03 04:55:06;;;;;;;0.10;0.10;;;8.90;99.90;;;;;;4971169;28;20167;-69
2024/01/03 04:57:34;;;;;;;2.22;2.03;;;8.90;99.90;;;;;;4967742;28;20043;-69
2024/01/03 04:59:59;;;;;;;0.30;0.30;;;8.90;99.90;;;;;;4967173;28;20046;-69
2024/01/03 05:02:25;;;;;;;1.80;0.80;;;8.90;99.90;;;;;;4971732;28;20047;-69
2024/01/03 05:04:51;;;;;;;0.10;0.10;;;8.90;99.90;;;;;;4959040;28;20451;-68
2024/01/03 05:07:17;;;;;;;3.90;1.35;;;9.00;99.90;;;;;;4965015;28;20042;-69
2024/01/03 05:09:43;;;;;;;0.10;0.10;;;9.00;99.90;;;;;;4966320;28;20134;-69
2024/01/03 05:12:09;;;;;;;0.00;0.00;;;9.00;99.90;;;;;;4957515;28;20454;-68
2024/01/03 05:14:34;;;;;;;0.10;0.10;;;8.90;99.90;;;;;;4966491;28;20114;-69
2024/01/03 05:17:00;;;;;;;0.10;0.10;;;8.80;99.90;;;;;;4991089;28;20039;-69
2024/01/03 05:19:26;;;;;;;0.40;0.40;;;8.80;99.90;;;;;;4995960;28;20109;-69
2024/01/03 05:21:51;;;;;;;0.10;0.10;;;8.80;99.90;;;;;;4999495;28;20407;-68
2024/01/03 05:24:19;;;;;;;1.20;0.98;;;8.70;99.90;;;;;;4962348;28;20051;-69
2024/01/03 05:26:45;;;;;;;0.00;0.00;;;8.70;99.90;;;;;;4957825;28;20054;-69
2024/01/03 05:29:11;;;;;;;0.10;0.10;;;8.70;99.90;;;;;;4960426;28;20061;-69
2024/01/03 05:31:36;;;;;;;3.10;0.73;;;8.70;99.90;;;;;;4962513;28;20653;-69
2024/01/03 05:34:02;;;;;;;0.20;0.20;;;8.70;99.90;;;;;;4956875;28;20070;-69
2024/01/03 05:36:27;;;;;;;9.75;4.50;;;8.70;99.90;;;;;;5001744;28;20042;-69
2024/01/03 05:38:53;;;;;;;0.73;0.73;;;8.80;99.90;;;;;;4970353;28;20049;-69
2024/01/03 05:41:18;;;;;;;1.65;1.20;;;8.80;99.90;;;;;;4970847;28;20039;-70
2024/01/03 05:43:44;;;;;;;0.10;0.10;;;8.80;99.90;;;;;;4960502;28;20046;-69
2024/01/03 05:46:10;;;;;;;1.05;0.95;;;8.80;99.90;;;;;;4967374;28;20047;-69
2024/01/03 05:48:36;;;;;;;0.00;0.00;;;8.90;99.90;;;;;;4964204;28;20093;-69
2024/01/03 05:51:02;;;;;;;0.10;0.10;;;8.90;99.90;;;;;;5003162;28;20047;-69
2024/01/03 05:53:28;;;;;;;0.10;0.10;;;8.90;99.90;;;;;;4961184;28;20126;-69
2024/01/03 05:55:53;;;;;;;8.50;1.35;;;8.90;99.90;;;;;;4965338;28;20150;-69
2024/01/03 05:58:19;;;;;;;0.68;0.60;;;8.90;99.90;;;;;;4962536;28;20043;-69
2024/01/03 06:00:44;;;;;;;6.88;3.22;;;8.90;99.90;;;;;;4992069;28;20881;-69
2024/01/03 06:03:10;;;;;;;0.25;0.25;;;8.90;99.90;;;;;;4967152;28;20073;-69
2024/01/03 06:05:36;;;;;;;0.22;0.22;;;8.90;99.90;;;;;;4967764;28;20566;-69
2024/01/03 06:08:01;;;;;;;0.10;0.10;;;8.90;99.90;;;;;;5000720;28;20050;-69
2024/01/03 06:10:27;;;;;;;0.10;0.10;;;8.90;99.90;;;;;;4963439;28;20047;-68
2024/01/03 06:12:52;;;;;;;0.10;0.10;;;8.90;99.90;;;;;;4991300;28;20491;-69
2024/01/03 06:15:18;;;;;;;0.00;0.00;;;8.90;99.90;;;;;;4964107;28;20480;-69
2024/01/03 06:17:44;;;;;;;1.48;1.10;;;8.90;99.90;;;;;;4959999;28;20087;-69
2024/01/03 06:20:09;;;;;;;0.10;0.10;;;8.90;99.90;;;;;;4967569;28;20046;-69
2024/01/03 06:22:35;;;;;;;0.20;0.20;;;9.00;99.90;;;;;;4964933;28;20519;-69
2024/01/03 06:25:01;;;;;;;2.05;1.08;;;9.00;99.90;;;;;;4955418;28;20047;-69
2024/01/03 06:27:26;;;;;;;0.10;0.10;;;9.00;99.90;;;;;;4967657;28;20061;-69
2024/01/03 06:29:52;;;;;;;0.82;0.82;;;9.00;99.90;;;;;;4968414;28;20050;-69
2024/01/03 06:32:18;;;;;;;0.35;0.35;;;9.00;99.90;;;;;;4961403;28;20043;-69
2024/01/03 06:34:43;;;;;;;0.00;0.00;;;9.00;99.90;;;;;;4969360;28;20041;-69
2024/01/03 06:37:09;;;;;;;0.22;0.22;;;9.00;99.90;;;;;;4969370;28;20474;-68
2024/01/03 06:39:34;;;;;;;0.22;0.22;;;9.00;99.90;;;;;;4964836;28;20483;-69
2024/01/03 06:42:00;;;;;;;0.88;0.88;;;9.00;99.90;;;;;;4969122;28;20070;-69
2024/01/03 06:44:26;;;;;;;0.10;0.10;;;9.00;99.90;;;;;;4993892;28;20055;-69
2024/01/03 06:46:52;;;;;;;9.80;2.83;;;9.00;99.90;;;;;;4968752;28;20050;-69
2024/01/03 06:49:17;;;;;;;0.47;0.47;;;9.00;99.90;;;;;;4956338;28;20057;-69
2024/01/03 06:51:44;;;;;;;2.50;1.77;;;9.00;99.90;;;;;;4965708;28;20101;-69
2024/01/03 06:54:09;;;;;;;0.20;0.20;;;9.00;99.90;;;;;;4970950;28;20046;-69
2024/01/03 06:56:35;;;;;;;6.90;3.22;;;9.00;99.90;;;;;;4964224;28;20061;-69
2024/01/03 06:59:01;;;;;;;0.10;0.10;;;9.00;99.90;;;;;;4962002;28;20499;-68
2024/01/03 07:01:26;;;;;;;0.20;0.20;;;9.00;99.90;;;;;;4972278;28;20042;-69
2024/01/03 07:03:52;;;;;;;0.30;0.30;;;9.00;99.90;;;;;;4952254;28;20538;-69
2024/01/03 07:06:17;;;;;;;0.95;0.95;;;9.10;99.90;;;;;;4961929;28;20058;-69
2024/01/03 07:08:47;;;;;;;0.10;0.10;;;9.10;99.90;;;;;;4964965;28;20746;-69
2024/01/03 07:11:12;;;;;;;1.27;1.27;;;9.00;99.90;;;;;;4967174;28;20055;-69
2024/01/03 07:13:38;;;;;;;0.10;0.10;;;9.00;99.90;;;;;;4957104;28;20049;-69
2024/01/03 07:16:04;;;;;;;2.25;1.83;;;9.10;99.90;;;;;;4967712;28;20380;-69
2024/01/03 07:18:29;;;;;;;2.53;1.45;;;9.10;99.90;;;;;;4956441;28;20074;-69
2024/01/03 07:20:55;;;;;;;1.15;1.05;;;9.10;99.90;;;;;;4969238;28;20050;-69
2024/01/03 07:23:21;;;;;;;0.10;0.10;;;9.10;99.90;;;;;;4960810;28;20082;-69
2024/01/03 07:25:46;;;;;;;0.10;0.10;;;9.10;99.90;;;;;;4955855;28;20503;-69
2024/01/03 07:28:13;;;;;;;3.03;1.95;;;9.00;99.90;;;;;;4968714;28;20058;-69
2024/01/03 07:30:39;;;;;;;2.42;1.20;;;9.00;99.90;;;;;;4997279;28;20118;-69
2024/01/03 07:33:04;;;;;;;0.10;0.10;;;9.00;99.90;;;;;;4996863;28;20091;-69
2024/01/03 07:35:30;;;;;;;0.10;0.10;;;9.00;99.90;;;;;;4963782;28;20410;-69
2024/01/03 07:37:55;;;;;;;0.52;0.52;;;9.00;99.90;;;;;;4962309;28;20118;-69
2024/01/03 07:40:21;;;;;;;1.90;1.75;;;9.00;99.90;;;;;;4960999;28;20475;-70
2024/01/03 07:42:46;;;;;;;0.40;0.40;;;9.00;99.90;;;;;;4994437;28;20113;-69
2024/01/03 07:45:12;;;;;;;0.10;0.10;;;9.00;99.90;;;;;;4963584;28;20085;-69
2024/01/03 07:47:38;;;;;;;0.10;0.10;;;9.00;99.90;;;;;;4959907;28;20669;-69
2024/01/03 07:50:03;;;;;;;3.42;3.10;;;9.00;99.90;;;;;;4961915;28;20042;-69
2024/01/03 07:52:29;;;;;;;0.30;0.30;;;9.00;99.90;;;;;;4962315;28;20047;-69
2024/01/03 07:54:54;;;;;;;0.57;0.57;;;9.10;99.90;;;;;;4962424;28;20055;-69
2024/01/03 07:57:20;;;;;;;0.40;0.40;;;9.00;99.90;;;;;;4963350;28;20057;-69
2024/01/03 07:59:46;;;;;;;0.08;0.08;;;9.00;99.90;;;;;;4963458;28;20058;-69
2024/01/03 08:02:12;;;;;;;7.47;1.85;;;9.00;99.90;;;;;;4961402;28;20078;-70
2024/01/03 08:04:39;;;;;;;0.00;0.00;;;9.10;99.90;;;;;;4960715;28;20051;-69
2024/01/03 08:07:04;;;;;;;0.20;0.20;;;9.00;99.90;;;;;;4964113;28;20479;-69
2024/01/03 08:09:30;;;;;;;0.10;0.10;;;9.00;99.90;;;;;;4959059;28;20047;-69
2024/01/03 08:11:56;;;;;;;0.73;0.40;;;9.00;99.90;;;;;;4991383;28;20063;-69
2024/01/03 08:14:22;;;;;;;31.05;1.13;;;9.00;99.90;;;;;;4998285;28;20078;-69
2024/01/03 08:16:47;;;;;;;0.10;0.10;;;9.00;99.90;;;;;;4967902;28;20483;-70
2024/01/03 08:19:13;;;;;;;0.10;0.10;;;8.90;99.90;;;;;;4956473;28;20407;-70
2024/01/03 08:21:38;;;;;;;0.75;0.75;;;8.90;99.90;;;;;;4969203;28;20078;-69
2024/01/03 08:24:04;;;;;;;0.60;0.60;;;8.90;99.90;;;;;;4967409;28;20054;-69
2024/01/03 08:26:31;;;;;;;0.10;0.10;;;8.90;99.90;;;;;;4966463;28;20039;-69
2024/01/03 08:28:57;;;;;;;0.10;0.10;;;8.90;99.90;;;;;;4959223;28;20054;-70
2024/01/03 08:31:22;;;;;;;0.10;0.10;;;8.90;99.90;;;;;;4967231;28;20046;-70
2024/01/03 08:33:48;;;;;;;0.10;0.10;;;8.90;99.90;;;;;;4968425;28;20046;-69
2024/01/03 08:36:15;;;;;;;6.80;3.35;;;8.90;99.90;;;;;;4965139;28;20066;-69
2024/01/03 08:38:41;;;;;;;0.20;0.20;;;8.90;99.90;;;;;;4970574;28;20055;-69
2024/01/03 08:41:17;;;;;;;0.10;0.10;;;9.00;99.90;;;;;;4966345;28;20039;-69
2024/01/03 08:43:44;;;;;;;0.10;0.10;;;9.00;99.90;;;;;;4963153;28;20152;-69
2024/01/03 08:46:10;;;;;;;0.28;0.28;;;9.00;99.90;;;;;;5003958;28;20121;-69
2024/01/03 08:48:39;;;;;;;0.95;0.95;;;9.10;99.90;;;;;;4971268;28;20198;-70
2024/01/03 08:51:10;;;;;;;0.40;0.40;;;9.10;99.90;;;;;;4969355;28;20047;-70
2024/01/03 08:53:36;;;;;;;0.10;0.10;;;9.10;99.90;;;;;;4969663;28;20073;-70
2024/01/03 08:56:05;;;;;;;0.10;0.10;;;9.20;99.90;;;;;;4965522;28;20499;-70
2024/01/03 08:58:30;;;;;;;0.10;0.10;;;9.20;99.90;;;;;;4962025;28;20065;-70
2024/01/03 09:00:56;;;;;;;0.60;0.60;;;9.20;99.90;;;;;;4972002;28;20043;-70
2024/01/03 09:03:22;;;;;;;0.10;0.10;;;9.20;99.90;;;;;;4965498;28;20500;-70
2024/01/03 09:05:47;;;;;;;13.88;1.00;;;9.20;99.90;;;;;;4967141;28;20050;-70
2024/01/03 09:08:13;;;;;;;0.90;0.50;;;9.20;99.90;;;;;;4969789;28;20535;-70
2024/01/03 09:10:39;;;;;;;0.10;0.10;;;9.30;99.90;;;;;;4967865;28;20134;-70
2024/01/03 09:13:04;;;;;;;0.85;0.73;;;9.40;99.90;;;;;;4968250;28;20055;-70
2024/01/03 09:15:30;;;;;;;0.68;0.68;;;9.30;99.90;;;;;;4958139;28;20093;-70
2024/01/03 09:17:55;;;;;;;5.38;1.85;;;9.30;99.90;;;;;;4997489;28;20081;-70
2024/01/03 09:20:21;;;;;;;0.20;0.20;;;9.30;99.90;;;;;;5000817;28;20500;-70
2024/01/03 09:22:47;;;;;;;0.10;0.10;;;9.30;99.90;;;;;;4967880;28;20115;-70
2024/01/03 09:25:12;;;;;;;0.98;0.52;;;9.30;99.90;;;;;;4959534;28;20063;-70
2024/01/03 09:27:38;;;;;;;1.17;1.17;;;9.30;99.90;;;;;;4965560;28;20039;-70
2024/01/03 09:30:05;;;;;;;2.75;1.25;;;9.20;99.90;;;;;;4967168;28;20129;-70
2024/01/03 09:32:31;;;;;;;0.10;0.10;;;9.20;99.90;;;;;;4961641;28;20043;-69
2024/01/03 09:34:56;;;;;;;0.30;0.30;;;9.20;99.90;;;;;;4961834;28;20061;-69
2024/01/03 09:37:22;;;;;;;0.00;0.00;;;9.20;99.90;;;;;;4956580;28;20039;-68
2024/01/03 09:39:48;;;;;;;0.73;0.73;;;9.30;99.90;;;;;;4958657;28;20498;-68
2024/01/03 09:42:13;;;;;;;2.00;1.35;;;9.30;99.90;;;;;;4966742;28;20042;-69
2024/01/03 09:44:40;;;;;;;0.00;0.00;;;9.30;99.90;;;;;;4959188;28;20053;-68
2024/01/03 09:47:07;;;;;;;0.65;0.65;;;9.40;99.90;;;;;;4958292;28;20552;-69
2024/01/03 09:49:33;;;;;;;0.10;0.10;;;9.40;99.90;;;;;;4971967;28;20058;-69
2024/01/03 09:52:00;;;;;;;0.00;0.00;;;9.30;99.90;;;;;;4961939;28;20508;-69
2024/01/03 09:54:25;;;;;;;0.95;0.95;;;9.40;99.90;;;;;;4967114;28;20442;-69
2024/01/03 09:56:51;;;;;;;0.13;0.13;;;9.40;99.90;;;;;;4994807;28;20051;-69
2024/01/03 09:59:18;;;;;;;0.10;0.10;;;9.30;99.90;;;;;;4967492;28;20874;-69
2024/01/03 10:01:58;;;;;;;0.52;0.52;;;9.30;99.90;;;;;;4967090;28;20057;-69
2024/01/03 10:04:27;;;;;;;0.15;0.15;;;9.20;99.90;;;;;;4962659;28;20065;-68
2024/01/03 10:06:57;;;;;;;0.00;0.00;;;9.20;99.90;;;;;;4957196;28;20058;-68
2024/01/03 10:09:24;;;;;;;0.00;0.00;;;9.20;99.90;;;;;;4963947;28;20031;-69
2024/01/03 10:11:53;;;;;;;0.10;0.10;;;9.20;99.90;;;;;;4963883;28;20063;-69
2024/01/03 10:14:20;;;;;;;0.35;0.35;;;9.20;99.90;;;;;;4964927;28;20043;-69
2024/01/03 10:16:47;;;;;;;0.10;0.10;;;9.20;99.90;;;;;;4966122;28;20078;-70
2024/01/03 10:19:15;;;;;;;0.90;0.90;;;9.20;99.90;;;;;;4963499;28;20057;-69
2024/01/03 10:21:49;;;;;;;0.00;0.00;;;9.30;99.90;;;;;;4988618;28;20051;-69
2024/01/03 10:24:15;;;;;;;;;;;9.40;99.90;;;;;;4957443;28;20058;-69
2024/01/03 10:26:41;;;;;;;0.30;0.30;;;9.40;99.90;;;;;;4990425;28;20362;-69
2024/01/03 10:29:11;;;;;;;0.00;0.00;;;9.50;99.90;;;;;;4996297;28;20051;-69
2024/01/03 10:31:37;;;;;;;0.10;0.10;;;9.50;99.90;;;;;;4994728;28;20498;-68
2024/01/03 10:34:17;;;;;;;3.50;1.17;;;9.50;99.90;;;;;;4964918;28;20058;-69
2024/01/03 10:36:43;;;;;;;0.22;0.22;;;9.50;99.90;;;;;;4986238;28;20046;-69
2024/01/03 10:39:15;;;;;;;0.10;0.10;;;9.50;99.90;;;;;;4965786;28;20170;-69
2024/01/03 10:41:45;;;;;;;0.22;0.22;;;9.60;99.90;;;;;;4957350;28;20050;-69
2024/01/03 10:44:13;;;;;;;1.48;1.38;;;9.60;99.90;;;;;;4963586;28;20125;-69
2024/01/03 10:46:41;;;;;;;0.10;0.10;;;9.60;99.90;;;;;;4999379;28;20047;-69
2024/01/03 10:49:07;;;;;;;1.35;1.27;;;9.70;99.90;;;;;;4961616;28;20047;-69
2024/01/03 10:51:37;;;;;;;8.63;1.55;;;9.70;99.90;;;;;;4965012;28;20050;-69
2024/01/03 10:54:04;;;;;;;0.55;0.55;;;9.70;99.90;;;;;;4963034;28;20042;-69
2024/01/03 10:56:33;;;;;;;0.52;0.52;;;9.70;99.90;;;;;;4964941;28;20484;-69
2024/01/03 10:59:00;;;;;;;0.10;0.10;;;9.70;99.90;;;;;;4956174;28;20110;-69
2024/01/03 11:01:34;;;;;;;2.05;1.05;;;9.70;99.90;;;;;;4962343;28;20051;-69
2024/01/03 11:04:00;;;;;;;0.68;0.68;;;9.70;99.90;;;;;;4966163;28;20057;-69
2024/01/03 11:06:41;;;;;;;0.30;0.30;;;9.80;99.90;;;;;;4961754;28;20463;-69
2024/01/03 11:09:07;;;;;;;1.38;1.33;;;10.00;99.90;;;;;;4998388;28;20066;-68
2024/01/03 11:11:39;;;;;;;0.57;0.57;;;10.00;99.90;;;;;;4963702;28;20518;-69
2024/01/03 11:14:16;;;;;;;0.98;0.95;;;10.00;99.90;;;;;;4999388;28;20183;-68
2024/01/03 11:16:42;;;;;;;1.13;1.13;;;9.90;99.90;;;;;;4955803;28;20055;-69
2024/01/03 11:19:09;;;;;;;0.10;0.10;;;9.90;99.90;;;;;;4962582;28;20542;-69
2024/01/03 11:21:36;;;;;;;0.00;0.00;;;9.80;99.90;;;;;;4988580;28;20112;-69
2024/01/03 11:24:02;;;;;;;0.05;0.05;;;9.70;99.90;;;;;;4962666;28;20047;-69
2024/01/03 11:26:56;;;;;;;0.52;0.50;;;9.70;99.90;;;;;;4970760;28;20126;-69
2024/01/03 11:29:44;;;;;;;0.03;0.03;;;9.70;99.90;;;;;;4964221;28;20407;-67
2024/01/03 11:32:13;;;;;;;0.10;0.10;;;9.70;99.90;;;;;;4963178;28;20130;-67
2024/01/03 11:34:48;;;;;;;3.65;0.85;;;9.70;99.90;;;;;;4994841;28;20046;-67
2024/01/03 11:37:18;;;;;;;5.28;4.78;;;9.90;99.90;;;;;;4966736;28;20076;-67
2024/01/03 11:40:05;;;;;;;0.32;0.32;;;10.00;99.90;;;;;;4967303;28;20050;-67
2024/01/03 11:42:40;;;;;;;1.40;1.30;;;10.10;99.90;;;;;;4963803;28;20051;-67
2024/01/03 11:45:11;;;;;;;0.00;0.00;;;10.10;99.90;;;;;;4960591;28;20061;-67
2024/01/03 11:47:42;;;;;;;6.60;3.13;;;10.20;99.90;;;;;;4994225;28;20069;-67
2024/01/03 11:50:12;;;;;;;0.10;0.10;;;10.20;99.90;;;;;;4992496;28;20228;-67
2024/01/03 11:52:43;;;;;;;1.48;1.38;;;10.20;99.90;;;;;;4964770;28;20078;-68
2024/01/03 11:55:11;;;;;;;0.10;0.10;;;10.10;99.90;;;;;;4961250;28;20536;-67
2024/01/03 11:57:41;;;;;;;0.30;0.30;;;10.10;99.90;;;;;;4966785;28;20077;-67
2024/01/03 12:00:11;;;;;;;0.10;0.10;;;10.10;99.90;;;;;;4958954;28;20435;-67
2024/01/03 12:02:36;;;;;;;2.75;1.13;;;10.10;99.90;;;;;;4959821;28;20039;-67
2024/01/03 12:05:04;;;;;;;0.10;0.10;;;10.10;99.90;;;;;;4961103;28;20118;-67
2024/01/03 12:07:39;;;;;;;0.00;0.00;;;10.10;99.90;;;;;;4957957;28;20103;-67
2024/01/03 12:10:06;;;;;;;0.25;0.25;;;10.10;99.90;;;;;;4962389;28;20043;-67
2024/01/03 12:12:32;;;;;;;0.00;0.00;;;10.10;99.90;;;;;;4961922;28;20035;-67
2024/01/03 12:14:58;;;;;;;0.10;0.10;;;10.10;99.90;;;;;;4965089;28;20730;-67
2024/01/03 12:17:26;;;;;;;0.10;0.10;;;10.20;99.90;;;;;;4957517;28;20039;-67
2024/01/03 12:19:51;;;;;;;0.10;0.10;;;10.20;99.90;;;;;;4964434;28;20411;-67
2024/01/03 12:22:23;;;;;;;0.10;0.10;;;10.20;99.90;;;;;;4965710;28;20043;-70
2024/01/03 12:24:50;;;;;;;0.57;0.57;;;10.20;99.90;;;;;;4990521;28;20050;-67
2024/01/03 12:27:23;;;;;;;0.10;0.10;;;10.20;99.90;;;;;;4960467;28;20058;-67
2024/01/03 12:29:49;;;;;;;0.03;0.03;;;10.20;99.90;;;;;;4963582;28;20051;-67
2024/01/03 12:32:16;;;;;;;0.10;0.10;;;10.20;99.90;;;;;;4959208;28;20086;-67
2024/01/03 12:34:43;;;;;;;0.10;0.10;;;10.20;99.90;;;;;;4964523;28;20058;-68
2024/01/03 12:37:09;;;;;;;0.10;0.10;;;10.30;99.90;;;;;;4992080;28;20047;-67
2024/01/03 12:39:38;;;;;;;0.10;0.10;;;10.40;99.90;;;;;;4962235;28;20097;-68
2024/01/03 12:42:09;;;;;;;0.10;0.10;;;10.30;99.90;;;;;;4959758;28;20090;-67
2024/01/03 12:44:39;;;;;;;0.10;0.10;;;10.30;99.90;;;;;;4967785;28;20058;-67
2024/01/03 12:47:11;;;;;;;0.03;0.03;;;10.30;99.90;;;;;;4966447;28;20046;-67
2024/01/03 12:49:40;;;;;;;0.00;0.00;;;10.40;99.90;;;;;;4989109;28;20134;-67
2024/01/03 12:52:07;;;;;;;0.25;0.25;;;10.30;99.90;;;;;;4965269;28;20476;-67
2024/01/03 12:54:34;;;;;;;0.47;0.47;;;10.30;99.90;;;;;;4988846;28;20046;-67